Time;durP1;ratioP1;P1;durP2;ratioP2;P2;SDS_P1;SDS_P2;PMS_P1;PMS_P2;Temp;Humidity;BMP_temperature;BMP_pressure;BME280_temperature;BME280_humidity;BME280_pressure;Samples;Min_cycle;Max_cycle;Signal;HPM_P1;HPM_P2
2023/06/23 00:00:44;;;;;;;1.17;0.70;;;24.10;67.00;;;;;;5068678;28;20060;-66
2023/06/23 00:03:11;;;;;;;1.73;0.88;;;24.10;66.80;;;;;;5068791;28;20057;-66
2023/06/23 00:05:38;;;;;;;1.60;1.10;;;24.00;67.00;;;;;;5055027;28;20219;-62
2023/06/23 00:08:05;;;;;;;2.08;1.00;;;24.00;66.90;;;;;;5081415;28;20048;-65
2023/06/23 00:10:34;;;;;;;1.52;1.05;;;23.90;66.70;;;;;;5065822;28;20049;-67
2023/06/23 00:13:02;;;;;;;1.90;1.00;;;24.00;66.60;;;;;;5066322;28;20098;-66
2023/06/23 00:15:29;;;;;;;2.20;1.25;;;23.90;66.30;;;;;;5066626;28;20072;-66
2023/06/23 00:17:56;;;;;;;3.78;1.40;;;23.90;66.60;;;;;;5066826;28;20045;-67
2023/06/23 00:20:23;;;;;;;2.63;1.42;;;23.80;66.30;;;;;;5062252;28;20056;-68
2023/06/23 00:22:50;;;;;;;2.28;1.38;;;23.70;66.60;;;;;;5067601;28;20048;-68
2023/06/23 00:25:18;;;;;;;4.07;1.52;;;23.70;66.40;;;;;;5064410;28;20044;-68
2023/06/23 00:27:46;;;;;;;3.75;1.70;;;23.60;66.70;;;;;;5069027;28;20044;-67
2023/06/23 00:30:14;;;;;;;2.20;1.50;;;23.60;66.50;;;;;;5068621;28;20044;-68
2023/06/23 00:32:43;;;;;;;2.65;1.80;;;23.60;66.00;;;;;;5068660;28;20056;-68
2023/06/23 00:35:10;;;;;;;2.50;1.67;;;23.60;66.10;;;;;;5068354;28;20135;-67
2023/06/23 00:37:37;;;;;;;2.90;1.80;;;23.60;66.00;;;;;;5065063;28;20059;-68
2023/06/23 00:40:07;;;;;;;2.20;1.67;;;23.50;66.30;;;;;;5067551;28;20380;-69
2023/06/23 00:42:43;;;;;;;3.53;2.17;;;23.60;66.10;;;;;;5066798;28;20040;-68
2023/06/23 00:45:13;;;;;;;3.60;2.08;;;23.50;66.20;;;;;;5069520;28;20067;-68
2023/06/23 00:47:42;;;;;;;;;;;23.40;66.10;;;;;;5067415;28;20056;-67
2023/06/23 00:50:10;;;;;;;3.00;2.00;;;23.40;65.90;;;;;;5067583;28;19924;-65
2023/06/23 00:52:37;;;;;;;2.63;1.63;;;23.40;65.80;;;;;;5067336;28;20407;-67
2023/06/23 00:55:06;;;;;;;4.43;1.85;;;23.20;66.10;;;;;;5066813;28;20044;-67
2023/06/23 00:57:34;;;;;;;3.20;2.10;;;23.20;66.30;;;;;;5052949;28;20048;-67
2023/06/23 01:00:00;;;;;;;4.47;1.95;;;23.20;66.10;;;;;;5066249;28;20056;-69
2023/06/23 01:02:29;;;;;;;3.60;2.20;;;23.20;66.20;;;;;;5067523;28;20074;-68
2023/06/23 01:04:56;;;;;;;4.57;2.50;;;23.20;66.10;;;;;;5059109;28;20052;-68
2023/06/23 01:07:28;;;;;;;3.90;2.50;;;23.10;65.80;;;;;;5065951;28;20048;-68
2023/06/23 01:10:03;;;;;;;5.72;2.80;;;23.10;65.60;;;;;;5067338;28;20042;-69
2023/06/23 01:12:39;;;;;;;4.93;2.63;;;23.10;65.60;;;;;;5066528;28;20048;-69
2023/06/23 01:15:13;;;;;;;4.50;2.80;;;23.20;65.40;;;;;;5062646;28;20090;-68
2023/06/23 01:17:48;;;;;;;4.95;3.33;;;23.20;65.20;;;;;;5064746;28;20510;-69
2023/06/23 01:20:21;;;;;;;7.40;3.08;;;23.10;65.30;;;;;;5084793;28;20053;-68
2023/06/23 01:23:05;;;;;;;7.72;3.20;;;23.10;65.30;;;;;;5070509;28;20121;-68
2023/06/23 01:25:41;;;;;;;4.72;3.42;;;22.90;65.70;;;;;;5065711;28;20064;-68
2023/06/23 01:28:30;;;;;;;4.95;3.40;;;22.80;65.70;;;;;;5068340;28;20044;-67
2023/06/23 01:31:00;;;;;;;5.45;3.53;;;22.70;65.80;;;;;;5070508;28;20464;-67
2023/06/23 01:33:37;;;;;;;5.78;3.38;;;22.60;66.20;;;;;;5068368;28;20044;-67
2023/06/23 01:36:11;;;;;;;6.68;3.40;;;22.60;66.30;;;;;;5072175;28;20068;-67
2023/06/23 01:38:44;;;;;;;4.88;3.50;;;22.60;66.50;;;;;;5071583;28;20975;-66
2023/06/23 01:41:16;;;;;;;5.22;3.53;;;22.60;66.40;;;;;;5068552;28;20040;-68
2023/06/23 01:43:49;;;;;;;5.20;3.47;;;22.50;66.30;;;;;;5069615;28;20063;-68
2023/06/23 01:46:25;;;;;;;5.65;3.72;;;22.60;65.80;;;;;;5069215;28;20479;-68
2023/06/23 01:48:57;;;;;;;5.63;3.67;;;22.60;65.50;;;;;;5076702;28;20040;-68
2023/06/23 01:51:27;;;;;;;5.63;3.95;;;22.50;65.60;;;;;;5070820;28;20044;-68
2023/06/23 01:53:56;;;;;;;6.22;3.70;;;22.50;65.40;;;;;;5067821;28;20101;-67
2023/06/23 01:56:26;;;;;;;7.30;3.90;;;22.30;65.70;;;;;;5070828;28;20102;-67
2023/06/23 01:58:59;;;;;;;5.30;3.55;;;22.20;65.50;;;;;;5068779;28;20128;-67
2023/06/23 02:01:28;;;;;;;5.53;3.30;;;22.40;65.40;;;;;;5068847;28;20045;-66
2023/06/23 02:03:56;;;;;;;5.95;4.00;;;22.30;65.40;;;;;;5071029;28;20051;-67
2023/06/23 02:06:24;;;;;;;5.20;3.65;;;22.20;65.40;;;;;;5067531;28;20047;-67
2023/06/23 02:08:52;;;;;;;5.88;3.38;;;22.20;65.30;;;;;;5070163;28;20071;-67
2023/06/23 02:11:22;;;;;;;6.68;4.20;;;22.10;65.20;;;;;;5071569;28;20051;-67
2023/06/23 02:13:51;;;;;;;7.10;3.80;;;22.10;65.20;;;;;;5058602;28;20048;-67
2023/06/23 02:16:21;;;;;;;6.45;4.18;;;22.10;65.30;;;;;;5068755;28;20061;-68
2023/06/23 02:18:53;;;;;;;5.32;3.42;;;22.10;64.80;;;;;;5069555;28;20051;-66
2023/06/23 02:21:22;;;;;;;7.57;3.72;;;22.00;65.10;;;;;;5069606;28;20055;-68
2023/06/23 02:23:52;;;;;;;5.22;3.80;;;22.00;65.00;;;;;;5068841;28;20080;-67
2023/06/23 02:26:21;;;;;;;5.10;3.40;;;21.90;65.40;;;;;;5069981;28;20048;-67
2023/06/23 02:28:51;;;;;;;5.65;3.70;;;21.90;65.10;;;;;;5069551;28;20568;-67
2023/06/23 02:31:23;;;;;;;5.00;3.38;;;21.90;65.10;;;;;;5069616;28;20049;-66
2023/06/23 02:33:50;;;;;;;5.43;3.40;;;21.90;65.00;;;;;;5070369;28;20044;-67
2023/06/23 02:36:21;;;;;;;5.10;3.20;;;21.90;64.70;;;;;;5070416;28;20068;-68
2023/06/23 02:38:49;;;;;;;5.30;3.42;;;21.90;64.40;;;;;;5068032;28;20056;-67
2023/06/23 02:41:18;;;;;;;6.28;3.65;;;21.80;64.80;;;;;;5070704;28;20056;-67
2023/06/23 02:43:50;;;;;;;4.87;3.40;;;21.70;64.90;;;;;;5070304;28;20060;-68
2023/06/23 02:46:21;;;;;;;4.68;3.35;;;21.70;64.70;;;;;;5067655;28;20478;-67
2023/06/23 02:48:51;;;;;;;5.35;3.40;;;21.80;64.40;;;;;;5069200;28;20044;-67
2023/06/23 02:51:22;;;;;;;4.50;3.20;;;21.80;64.20;;;;;;5069425;28;20086;-67
2023/06/23 02:53:55;;;;;;;5.43;3.33;;;21.80;64.40;;;;;;5089735;28;20056;-68
2023/06/23 02:56:25;;;;;;;4.85;3.08;;;21.60;64.60;;;;;;5090119;28;20036;-67
2023/06/23 02:58:59;;;;;;;5.03;3.40;;;21.70;64.50;;;;;;5081286;28;20114;-67
2023/06/23 03:01:29;;;;;;;4.88;3.40;;;21.60;64.70;;;;;;5086797;28;20060;-67
2023/06/23 03:03:56;;;;;;;4.85;3.13;;;21.70;64.60;;;;;;5068575;28;20056;-67
2023/06/23 03:06:24;;;;;;;5.30;3.38;;;21.60;64.80;;;;;;5079450;28;20070;-69
2023/06/23 03:08:51;;;;;;;4.55;3.05;;;21.60;64.70;;;;;;5088102;28;20044;-68
2023/06/23 03:11:18;;;;;;;5.07;3.20;;;21.60;65.30;;;;;;5079061;28;20044;-68
2023/06/23 03:13:46;;;;;;;4.30;2.92;;;21.60;65.00;;;;;;5058898;28;20071;-66
2023/06/23 03:16:16;;;;;;;5.55;3.20;;;21.60;65.00;;;;;;5069709;28;20070;-65
2023/06/23 03:18:52;;;;;;;5.75;3.17;;;21.50;66.70;;;;;;5066826;28;20084;-66
2023/06/23 03:21:20;;;;;;;5.32;3.00;;;21.40;68.00;;;;;;5067324;28;20492;-66
2023/06/23 03:23:50;;;;;;;3.95;2.90;;;21.30;68.50;;;;;;5069078;28;20050;-66
2023/06/23 03:26:20;;;;;;;4.25;2.78;;;21.20;69.10;;;;;;5068465;28;20514;-66
2023/06/23 03:28:49;;;;;;;5.25;2.90;;;21.20;69.60;;;;;;5058495;28;20052;-66
2023/06/23 03:31:17;;;;;;;;;;;21.10;70.20;;;;;;5068668;28;20488;-65
2023/06/23 03:33:48;;;;;;;5.60;2.70;;;21.00;71.10;;;;;;5068787;28;19928;-66
2023/06/23 03:36:20;;;;;;;3.75;2.65;;;21.00;71.70;;;;;;5069862;28;20049;-66
2023/06/23 03:38:55;;;;;;;8.82;3.10;;;20.80;72.50;;;;;;5067114;28;20377;-64
2023/06/23 03:41:22;;;;;;;4.68;2.75;;;20.70;73.20;;;;;;5070521;28;20055;-67
2023/06/23 03:43:54;;;;;;;4.35;3.00;;;20.80;73.60;;;;;;5069700;28;20055;-65
2023/06/23 03:46:25;;;;;;;4.50;3.20;;;20.70;74.10;;;;;;5070054;28;20040;-65
2023/06/23 03:48:59;;;;;;;4.50;2.97;;;20.60;74.40;;;;;;5070246;28;20045;-65
2023/06/23 03:51:28;;;;;;;4.18;3.30;;;20.70;74.40;;;;;;5068530;28;20045;-65
2023/06/23 03:53:59;;;;;;;5.95;3.67;;;20.60;74.60;;;;;;5070669;28;20048;-65
2023/06/23 03:56:29;;;;;;;4.65;3.17;;;20.60;74.60;;;;;;5066853;28;20067;-64
2023/06/23 03:58:58;;;;;;;4.88;3.25;;;20.50;75.00;;;;;;5069960;28;20055;-66
2023/06/23 04:01:27;;;;;;;5.85;3.45;;;20.60;74.70;;;;;;5069033;28;20082;-66
2023/06/23 04:03:57;;;;;;;5.70;3.20;;;20.60;74.40;;;;;;5069786;28;20138;-65
2023/06/23 04:06:26;;;;;;;4.63;3.22;;;20.60;74.40;;;;;;5066903;28;20045;-65
2023/06/23 04:08:55;;;;;;;4.82;3.08;;;20.60;74.20;;;;;;5069630;28;20056;-65
2023/06/23 04:11:23;;;;;;;4.55;3.35;;;20.60;74.30;;;;;;5069835;28;20070;-66
2023/06/23 04:13:51;;;;;;;4.85;3.05;;;20.50;74.90;;;;;;5083349;28;20052;-65
2023/06/23 04:16:19;;;;;;;6.50;3.70;;;20.40;75.10;;;;;;5066058;28;20052;-65
2023/06/23 04:18:48;;;;;;;6.03;3.17;;;20.50;74.90;;;;;;5067369;28;20052;-66
2023/06/23 04:21:17;;;;;;;4.68;3.10;;;20.50;74.90;;;;;;5069021;28;20052;-65
2023/06/23 04:23:46;;;;;;;4.30;2.97;;;20.30;75.40;;;;;;5068687;28;20040;-66
2023/06/23 04:26:14;;;;;;;4.32;3.40;;;20.30;75.40;;;;;;5067992;28;20052;-64
2023/06/23 04:28:44;;;;;;;4.45;3.22;;;20.40;75.40;;;;;;5058283;28;20414;-66
2023/06/23 04:31:12;;;;;;;4.38;2.95;;;20.40;75.40;;;;;;5066779;28;20043;-66
2023/06/23 04:33:39;;;;;;;5.22;3.60;;;20.40;75.70;;;;;;5068167;28;20052;-65
2023/06/23 04:36:13;;;;;;;5.10;3.25;;;20.50;75.20;;;;;;5068384;28;20041;-67
2023/06/23 04:38:46;;;;;;;4.75;3.05;;;20.40;75.50;;;;;;5075434;28;20053;-66
2023/06/23 04:41:18;;;;;;;4.88;3.30;;;20.30;75.90;;;;;;5069049;28;20530;-67
2023/06/23 04:43:47;;;;;;;4.60;2.97;;;20.30;75.90;;;;;;5068504;28;20097;-65
2023/06/23 04:46:20;;;;;;;4.07;2.90;;;20.30;76.10;;;;;;5067589;28;20094;-65
2023/06/23 04:48:51;;;;;;;4.57;3.22;;;20.20;76.40;;;;;;5068619;28;20408;-65
2023/06/23 04:51:21;;;;;;;4.97;3.15;;;20.30;76.50;;;;;;5069968;28;20128;-65
2023/06/23 04:53:53;;;;;;;4.38;2.78;;;20.20;76.30;;;;;;5071885;28;20442;-65
2023/06/23 04:56:23;;;;;;;4.20;3.15;;;20.10;76.30;;;;;;5071991;28;20102;-65
2023/06/23 04:58:54;;;;;;;4.47;2.83;;;20.20;76.30;;;;;;5070861;28;20123;-64
2023/06/23 05:01:22;;;;;;;5.28;3.00;;;20.20;76.40;;;;;;5087470;28;20044;-64
2023/06/23 05:03:51;;;;;;;4.85;3.13;;;20.10;76.40;;;;;;5082625;28;20471;-65
2023/06/23 05:06:20;;;;;;;5.60;3.00;;;20.10;76.50;;;;;;5079377;28;20123;-66
2023/06/23 05:08:51;;;;;;;5.13;3.60;;;20.20;76.20;;;;;;5090272;28;20120;-66
2023/06/23 05:11:19;;;;;;;4.40;2.92;;;20.10;76.40;;;;;;5082840;28;20423;-65
2023/06/23 05:13:48;;;;;;;4.05;2.83;;;20.00;76.30;;;;;;5074023;28;20453;-62
2023/06/23 05:16:17;;;;;;;4.32;3.10;;;20.00;76.30;;;;;;5080189;28;20048;-66
2023/06/23 05:18:46;;;;;;;4.82;3.22;;;20.00;76.50;;;;;;5070633;28;20056;-66
2023/06/23 05:21:15;;;;;;;4.80;3.20;;;20.00;76.30;;;;;;5085696;28;20050;-64
2023/06/23 05:23:44;;;;;;;4.53;3.17;;;19.90;76.30;;;;;;5089811;28;20044;-64
2023/06/23 05:26:15;;;;;;;4.38;2.95;;;20.00;75.80;;;;;;5080399;28;20052;-65
2023/06/23 05:28:44;;;;;;;5.15;3.40;;;20.00;76.10;;;;;;5069099;28;20554;-66
2023/06/23 05:31:13;;;;;;;5.55;3.65;;;20.00;75.80;;;;;;5085950;28;20053;-65
2023/06/23 05:33:43;;;;;;;5.00;3.70;;;20.00;75.80;;;;;;5076406;28;20121;-64
2023/06/23 05:36:12;;;;;;;5.13;3.67;;;20.10;75.90;;;;;;5082245;28;20083;-65
2023/06/23 05:38:42;;;;;;;6.28;4.22;;;20.10;75.90;;;;;;5069733;28;20059;-65
2023/06/23 05:41:09;;;;;;;;;;;20.00;75.80;;;;;;5083044;28;20497;-64
2023/06/23 05:43:38;;;;;;;6.95;4.63;;;20.10;75.70;;;;;;5077999;28;19928;-65
2023/06/23 05:46:10;;;;;;;8.30;4.43;;;20.00;75.50;;;;;;5072808;28;20051;-66
2023/06/23 05:48:42;;;;;;;5.40;3.88;;;19.90;75.50;;;;;;5077541;28;20084;-65
2023/06/23 05:51:14;;;;;;;5.50;4.03;;;20.00;75.60;;;;;;5083001;28;20051;-66
2023/06/23 05:53:43;;;;;;;4.88;3.58;;;19.90;75.70;;;;;;5071099;28;20045;-66
2023/06/23 05:56:16;;;;;;;5.40;3.47;;;20.00;75.80;;;;;;5080022;28;20056;-67
2023/06/23 05:58:48;;;;;;;5.40;3.60;;;20.00;75.40;;;;;;5082586;28;20068;-66
2023/06/23 06:01:19;;;;;;;5.22;3.75;;;20.10;75.30;;;;;;5077166;28;20043;-66
2023/06/23 06:03:53;;;;;;;5.03;3.65;;;20.10;75.40;;;;;;5076642;28;20487;-67
2023/06/23 06:06:22;;;;;;;6.72;3.75;;;20.10;75.00;;;;;;5075505;28;20056;-66
2023/06/23 06:08:50;;;;;;;5.40;3.90;;;20.00;75.40;;;;;;5077759;28;20052;-66
2023/06/23 06:11:18;;;;;;;5.65;4.18;;;20.00;75.60;;;;;;5084041;28;20514;-66
2023/06/23 06:13:49;;;;;;;6.07;4.43;;;20.00;75.60;;;;;;5076091;28;20392;-66
2023/06/23 06:16:18;;;;;;;6.95;3.92;;;19.90;75.50;;;;;;5089218;28;20052;-66
2023/06/23 06:18:47;;;;;;;6.20;4.07;;;20.00;75.50;;;;;;5087500;28;20383;-66
2023/06/23 06:21:16;;;;;;;5.57;3.97;;;19.90;75.50;;;;;;5077523;28;20052;-66
2023/06/23 06:23:44;;;;;;;6.32;4.45;;;19.90;75.10;;;;;;5075923;28;20055;-65
2023/06/23 06:26:13;;;;;;;7.10;4.88;;;19.90;75.20;;;;;;5083459;28;20047;-66
2023/06/23 06:28:42;;;;;;;7.60;5.00;;;19.90;75.20;;;;;;5075706;28;20054;-67
2023/06/23 06:31:12;;;;;;;5.15;3.90;;;19.90;75.10;;;;;;5080090;28;20047;-65
2023/06/23 06:33:42;;;;;;;5.88;4.18;;;19.90;74.80;;;;;;5080849;28;20070;-66
2023/06/23 06:36:09;;;;;;;5.60;3.80;;;19.80;74.80;;;;;;5087487;28;20120;-65
2023/06/23 06:38:40;;;;;;;4.63;3.30;;;19.90;74.70;;;;;;5082750;28;20048;-67
2023/06/23 06:41:08;;;;;;;4.65;3.25;;;19.90;74.50;;;;;;5076345;28;20048;-65
2023/06/23 06:43:36;;;;;;;4.75;3.35;;;20.00;74.30;;;;;;5074252;28;20059;-65
2023/06/23 06:46:05;;;;;;;5.95;3.15;;;19.90;74.40;;;;;;5064115;28;20049;-67
2023/06/23 06:48:35;;;;;;;5.03;3.42;;;19.90;74.50;;;;;;5068107;28;20056;-67
2023/06/23 06:51:03;;;;;;;5.80;3.42;;;19.90;74.40;;;;;;5067225;28;20076;-67
2023/06/23 06:53:31;;;;;;;4.85;3.42;;;20.00;74.10;;;;;;5068440;28;20071;-67
2023/06/23 06:55:58;;;;;;;5.05;3.72;;;20.00;74.10;;;;;;5068169;28;20445;-66
2023/06/23 06:58:25;;;;;;;5.65;3.72;;;19.90;74.30;;;;;;5068702;28;20052;-66
2023/06/23 07:00:53;;;;;;;7.80;3.60;;;19.90;74.30;;;;;;5069154;28;20071;-66
2023/06/23 07:03:21;;;;;;;6.13;3.25;;;20.00;74.00;;;;;;5074920;28;20052;-66
2023/06/23 07:05:49;;;;;;;6.10;3.50;;;19.90;74.30;;;;;;5071630;28;20049;-66
2023/06/23 07:08:16;;;;;;;5.82;3.72;;;20.00;73.90;;;;;;5076327;28;20037;-66
2023/06/23 07:10:43;;;;;;;5.57;3.47;;;20.00;73.80;;;;;;5074078;28;20052;-67
2023/06/23 07:13:10;;;;;;;5.68;4.10;;;20.00;73.60;;;;;;5065003;28;20479;-67
2023/06/23 07:15:37;;;;;;;4.97;3.58;;;19.90;73.90;;;;;;5069578;28;20419;-66
2023/06/23 07:18:04;;;;;;;5.72;3.38;;;19.90;74.30;;;;;;5068332;28;20044;-67
2023/06/23 07:20:31;;;;;;;5.20;3.65;;;19.90;73.90;;;;;;5086999;28;20047;-66
2023/06/23 07:22:59;;;;;;;7.00;3.47;;;19.90;74.00;;;;;;5084654;28;20059;-65
2023/06/23 07:25:26;;;;;;;5.97;3.97;;;19.90;74.00;;;;;;5077662;28;20040;-67
2023/06/23 07:27:53;;;;;;;4.93;3.60;;;19.90;73.80;;;;;;5075338;28;20044;-66
2023/06/23 07:30:20;;;;;;;4.38;3.08;;;20.00;73.50;;;;;;5083607;28;20055;-66
2023/06/23 07:32:47;;;;;;;4.45;3.30;;;20.00;73.70;;;;;;5082387;28;20135;-67
2023/06/23 07:35:14;;;;;;;4.75;3.30;;;20.00;73.30;;;;;;5078411;28;20070;-67
2023/06/23 07:37:41;;;;;;;4.90;2.90;;;20.00;73.40;;;;;;5081190;28;20045;-66
2023/06/23 07:40:10;;;;;;;5.07;2.80;;;20.10;73.20;;;;;;5068782;28;20192;-66
2023/06/23 07:42:37;;;;;;;4.50;2.97;;;20.00;72.40;;;;;;5087739;28;20071;-67
2023/06/23 07:45:05;;;;;;;4.78;2.75;;;20.00;72.40;;;;;;5089858;28;20048;-67
2023/06/23 07:47:32;;;;;;;5.03;2.80;;;20.10;72.30;;;;;;5062503;28;20052;-66
2023/06/23 07:49:59;;;;;;;4.90;3.03;;;20.10;72.20;;;;;;5068026;28;20065;-67
2023/06/23 07:52:25;;;;;;;3.95;2.63;;;20.10;72.50;;;;;;5068509;28;20036;-67
2023/06/23 07:54:52;;;;;;;6.22;3.28;;;20.00;72.50;;;;;;5078801;28;20163;-66
2023/06/23 07:57:21;;;;;;;4.32;2.70;;;20.00;72.30;;;;;;5067185;28;20044;-66
2023/06/23 07:59:48;;;;;;;4.47;3.10;;;20.00;72.20;;;;;;5068562;28;20044;-67
2023/06/23 08:02:15;;;;;;;4.47;2.63;;;20.10;72.20;;;;;;5087486;28;20461;-77
2023/06/23 08:04:42;;;;;;;7.30;3.03;;;20.10;72.40;;;;;;5077026;28;20042;-78
2023/06/23 08:07:09;;;;;;;4.07;2.47;;;20.10;72.10;;;;;;5085483;28;20055;-78
2023/06/23 08:09:36;;;;;;;4.90;2.95;;;20.00;72.10;;;;;;5082804;28;20092;-78
2023/06/23 08:12:03;;;;;;;6.20;3.10;;;20.10;72.00;;;;;;5073921;28;20104;-77
2023/06/23 08:14:31;;;;;;;6.28;2.65;;;20.10;71.70;;;;;;5078532;28;20065;-77
2023/06/23 08:16:59;;;;;;;4.78;2.85;;;20.10;71.60;;;;;;5074506;28;20399;-77
2023/06/23 08:19:26;;;;;;;3.92;2.33;;;20.10;71.50;;;;;;5081788;28;20131;-77
2023/06/23 08:21:54;;;;;;;4.78;2.70;;;20.10;71.20;;;;;;5080259;28;20055;-77
2023/06/23 08:24:21;;;;;;;4.07;2.47;;;20.10;71.30;;;;;;5080116;28;20054;-76
2023/06/23 08:26:48;;;;;;;3.58;2.35;;;20.10;71.50;;;;;;5078312;28;20044;-76
2023/06/23 08:29:15;;;;;;;4.22;2.47;;;20.10;71.10;;;;;;5074482;28;20109;-78
2023/06/23 08:31:43;;;;;;;3.70;2.13;;;20.10;71.20;;;;;;5080940;28;20040;-78
2023/06/23 08:34:11;;;;;;;4.07;2.58;;;20.20;71.40;;;;;;5081136;28;20128;-78
2023/06/23 08:36:37;;;;;;;4.38;2.45;;;20.10;71.70;;;;;;5089289;28;20051;-77
2023/06/23 08:39:05;;;;;;;4.38;2.70;;;20.10;71.80;;;;;;5073420;28;20044;-78
2023/06/23 08:41:35;;;;;;;6.40;3.00;;;20.20;71.50;;;;;;5065275;28;20045;-78
2023/06/23 08:44:02;;;;;;;3.97;2.75;;;20.10;71.80;;;;;;5086763;28;20095;-77
2023/06/23 08:46:32;;;;;;;4.25;2.83;;;20.10;71.60;;;;;;5074809;28;20049;-77
2023/06/23 08:49:05;;;;;;;6.38;2.88;;;20.10;71.80;;;;;;5077504;28;20055;-75
2023/06/23 08:51:34;;;;;;;4.75;2.63;;;20.10;71.70;;;;;;5078922;28;20059;-77
2023/06/23 08:54:01;;;;;;;4.38;3.08;;;20.10;71.70;;;;;;5079443;28;20113;-76
2023/06/23 08:56:29;;;;;;;4.80;3.35;;;20.10;71.70;;;;;;5073934;28;20055;-78
2023/06/23 08:58:56;;;;;;;4.88;3.03;;;20.10;72.00;;;;;;5072095;28;20491;-76
2023/06/23 09:01:23;;;;;;;5.28;2.97;;;20.10;71.40;;;;;;5071770;28;20163;-75
2023/06/23 09:03:51;;;;;;;6.05;3.22;;;20.10;71.30;;;;;;5084274;28;20055;-77
2023/06/23 09:06:19;;;;;;;4.85;3.17;;;20.10;71.30;;;;;;5082472;28;20146;-76
2023/06/23 09:08:46;;;;;;;5.95;3.88;;;20.10;71.50;;;;;;5076473;28;20059;-79
2023/06/23 09:11:13;;;;;;;5.15;3.55;;;20.10;71.60;;;;;;5077551;28;20044;-78
2023/06/23 09:13:45;;;;;;;4.43;3.22;;;20.10;70.90;;;;;;5076884;28;20041;-76
2023/06/23 09:16:13;;;;;;;6.75;4.00;;;20.20;70.70;;;;;;5093273;28;20046;-78
2023/06/23 09:18:41;;;;;;;6.60;4.30;;;20.20;70.80;;;;;;5071756;28;20530;-78
2023/06/23 09:21:22;;;;;;;5.78;3.72;;;20.20;70.80;;;;;;5066892;28;20506;-77
2023/06/23 09:24:03;;;;;;;5.40;3.72;;;20.30;70.40;;;;;;5073196;28;20044;-78
2023/06/23 09:26:30;;;;;;;7.03;4.25;;;20.20;70.40;;;;;;5090108;28;20064;-77
2023/06/23 09:29:15;;;;;;;6.88;4.18;;;20.20;70.40;;;;;;5085405;28;20051;-76
2023/06/23 09:31:43;;;;;;;5.85;4.05;;;20.20;70.70;;;;;;5083794;28;20052;-75
2023/06/23 09:34:10;;;;;;;6.55;4.30;;;20.20;70.40;;;;;;5078401;28;20407;-76
2023/06/23 09:36:37;;;;;;;5.60;3.85;;;20.30;70.30;;;;;;5081795;28;20056;-78
2023/06/23 09:39:06;;;;;;;5.18;3.45;;;20.20;69.70;;;;;;5081894;28;20076;-76
2023/06/23 09:41:33;;;;;;;5.70;3.15;;;20.20;69.50;;;;;;5073342;28;20400;-75
2023/06/23 09:44:00;;;;;;;5.18;3.45;;;20.30;69.40;;;;;;5089110;28;21216;-77
2023/06/23 09:46:32;;;;;;;4.75;3.10;;;20.20;69.40;;;;;;5078442;28;20056;-76
2023/06/23 09:49:01;;;;;;;5.80;3.38;;;20.30;69.40;;;;;;5064932;28;20502;-79
2023/06/23 09:51:28;;;;;;;5.03;3.10;;;20.20;69.00;;;;;;5086508;28;20097;-77
2023/06/23 09:53:55;;;;;;;4.38;2.65;;;20.20;68.90;;;;;;5088134;28;20045;-76
2023/06/23 09:56:23;;;;;;;6.00;2.75;;;20.20;68.90;;;;;;5079469;28;20040;-76
2023/06/23 09:58:50;;;;;;;5.32;3.05;;;20.20;68.50;;;;;;5081171;28;20551;-77
2023/06/23 10:01:18;;;;;;;4.25;2.63;;;20.20;67.40;;;;;;5050189;28;20051;-76
2023/06/23 10:03:46;;;;;;;4.28;3.00;;;20.20;67.90;;;;;;5068832;28;20048;-75
2023/06/23 10:06:24;;;;;;;4.57;2.95;;;20.20;67.80;;;;;;5057535;28;20052;-78
2023/06/23 10:08:55;;;;;;;4.93;2.78;;;20.20;67.40;;;;;;5081525;28;20052;-76
2023/06/23 10:11:31;;;;;;;3.70;2.60;;;20.10;67.40;;;;;;5068939;28;20127;-79
2023/06/23 10:13:59;;;;;;;4.38;2.80;;;20.20;67.50;;;;;;5069808;28;20033;-77
2023/06/23 10:16:27;;;;;;;4.90;2.83;;;20.30;67.40;;;;;;5078144;28;20064;-76
2023/06/23 10:18:54;;;;;;;5.15;2.83;;;20.30;67.30;;;;;;5079895;28;20056;-77
2023/06/23 10:21:21;;;;;;;5.88;3.20;;;20.20;67.60;;;;;;5027842;28;1100608;-77
2023/06/23 10:23:49;;;;;;;4.90;3.45;;;20.20;67.80;;;;;;5079174;28;20052;-77
2023/06/23 10:26:17;;;;;;;5.40;3.63;;;20.30;67.70;;;;;;5083141;28;20113;-76
2023/06/23 10:28:47;;;;;;;5.10;3.38;;;20.40;67.50;;;;;;5078512;28;20044;-78
2023/06/23 10:31:14;;;;;;;;;;;20.30;67.80;;;;;;5065901;28;20052;-75
2023/06/23 10:33:43;;;;;;;4.60;3.15;;;20.40;67.90;;;;;;5071177;28;19931;-75
2023/06/23 10:36:12;;;;;;;4.70;2.92;;;20.40;67.50;;;;;;5067676;28;20056;-77
2023/06/23 10:38:43;;;;;;;5.20;2.90;;;20.30;67.30;;;;;;5069698;28;20052;-76
2023/06/23 10:41:12;;;;;;;5.32;2.70;;;20.20;67.40;;;;;;5071285;28;20051;-77
2023/06/23 10:43:42;;;;;;;5.75;2.88;;;20.10;67.10;;;;;;5088397;28;20093;-77
2023/06/23 10:46:11;;;;;;;3.67;2.25;;;20.20;67.00;;;;;;5086190;28;20132;-78
2023/06/23 10:48:51;;;;;;;4.10;2.70;;;20.20;66.80;;;;;;5081629;28;20052;-77
2023/06/23 10:51:18;;;;;;;4.53;2.50;;;20.30;66.50;;;;;;5088206;28;20048;-77
2023/06/23 10:54:02;;;;;;;5.22;2.47;;;20.50;66.50;;;;;;5071020;28;20071;-78
2023/06/23 10:56:34;;;;;;;5.18;2.70;;;20.60;66.00;;;;;;5070334;28;20124;-76
2023/06/23 10:59:17;;;;;;;4.82;2.65;;;20.60;66.00;;;;;;5072481;28;20096;-78
2023/06/23 11:02:09;;;;;;;5.28;2.97;;;20.70;65.60;;;;;;5064229;28;20042;-78
2023/06/23 11:04:50;;;;;;;4.80;2.42;;;20.80;65.50;;;;;;5073457;28;20052;-76
2023/06/23 11:07:17;;;;;;;4.20;2.40;;;20.90;65.60;;;;;;5071538;28;20055;-75
2023/06/23 11:09:47;;;;;;;4.38;2.78;;;21.00;65.50;;;;;;5064252;28;20502;-77
2023/06/23 11:12:31;;;;;;;5.55;2.53;;;21.00;65.20;;;;;;5074224;28;20058;-77
2023/06/23 11:15:04;;;;;;;4.85;2.88;;;21.10;65.50;;;;;;5090172;28;20134;-75
2023/06/23 11:17:40;;;;;;;5.65;2.78;;;21.10;65.10;;;;;;5078522;28;20130;-76
2023/06/23 11:20:11;;;;;;;3.97;2.40;;;21.20;65.10;;;;;;5077572;28;20051;-77
2023/06/23 11:22:40;;;;;;;6.07;4.00;;;21.20;65.40;;;;;;5081828;28;20063;-77
2023/06/23 11:25:08;;;;;;;6.57;4.33;;;21.20;65.40;;;;;;5090252;28;20048;-76
2023/06/23 11:27:35;;;;;;;6.10;3.78;;;21.10;65.20;;;;;;5069639;28;20108;-76
2023/06/23 11:30:18;;;;;;;6.03;3.35;;;21.10;65.00;;;;;;5071038;28;20464;-76
2023/06/23 11:32:46;;;;;;;7.18;3.35;;;21.10;64.90;;;;;;5044188;28;20122;-77
2023/06/23 11:35:13;;;;;;;5.70;3.08;;;21.10;64.60;;;;;;5062756;28;20049;-76
2023/06/23 11:37:40;;;;;;;4.70;2.95;;;21.20;64.60;;;;;;5079319;28;20071;-76
2023/06/23 11:40:19;;;;;;;;;;;;;;;;;;;;;
2023/06/23 11:42:53;;;;;;;4.32;2.63;;;21.30;64.40;;;;;;5084477;28;20044;-76
2023/06/23 11:45:28;;;;;;;4.55;2.67;;;21.40;64.70;;;;;;5075007;28;20082;-76
2023/06/23 11:47:56;;;;;;;5.82;3.35;;;21.60;64.40;;;;;;5089824;28;20054;-76
2023/06/23 11:50:23;;;;;;;4.45;2.85;;;21.70;64.20;;;;;;5080190;28;20051;-77
2023/06/23 11:52:50;;;;;;;4.47;3.10;;;21.70;63.80;;;;;;5080514;28;20048;-77
2023/06/23 11:55:18;;;;;;;4.70;2.90;;;21.60;62.90;;;;;;5078534;28;20048;-75
2023/06/23 11:57:45;;;;;;;5.40;3.25;;;21.60;61.90;;;;;;5078707;28;20053;-77
2023/06/23 12:00:13;;;;;;;5.78;3.58;;;21.50;61.70;;;;;;5070175;28;20045;-77
2023/06/23 12:02:45;;;;;;;4.93;2.72;;;21.40;61.80;;;;;;5054286;28;20558;-77
2023/06/23 12:05:13;;;;;;;4.38;2.75;;;21.30;62.10;;;;;;5088574;28;20040;-77
2023/06/23 12:07:40;;;;;;;6.95;3.10;;;21.30;62.40;;;;;;5076077;28;20048;-77
2023/06/23 12:10:09;;;;;;;5.00;3.10;;;21.30;62.30;;;;;;5086230;28;20090;-76
2023/06/23 12:12:36;;;;;;;4.07;2.80;;;21.20;62.00;;;;;;5064525;28;20049;-76
2023/06/23 12:15:03;;;;;;;5.03;2.80;;;21.30;61.90;;;;;;5071221;28;20124;-76
2023/06/23 12:17:30;;;;;;;5.82;3.45;;;21.30;62.00;;;;;;5069172;28;20051;-78
2023/06/23 12:19:59;;;;;;;4.32;2.80;;;21.40;62.00;;;;;;5069899;28;20545;-76
2023/06/23 12:22:36;;;;;;;6.03;2.80;;;21.50;62.20;;;;;;5070712;28;20044;-76
2023/06/23 12:25:05;;;;;;;4.85;3.10;;;21.40;62.10;;;;;;5082594;28;20098;-77
2023/06/23 12:27:32;;;;;;;5.25;2.80;;;21.40;62.40;;;;;;5075271;28;20499;-77
2023/06/23 12:30:17;;;;;;;5.13;3.35;;;21.30;62.50;;;;;;5089050;28;20427;-77
2023/06/23 12:32:43;;;;;;;5.32;2.83;;;21.30;62.40;;;;;;5090294;28;20047;-77
2023/06/23 12:35:10;;;;;;;4.20;2.63;;;21.20;62.10;;;;;;5088850;28;20051;-77
2023/06/23 12:37:47;;;;;;;4.53;2.70;;;21.20;62.50;;;;;;5082415;28;20049;-76
2023/06/23 12:40:29;;;;;;;4.47;2.95;;;21.10;62.40;;;;;;5061106;28;20048;-78
2023/06/23 12:42:57;;;;;;;5.80;2.80;;;21.10;62.40;;;;;;5065167;28;20079;-77
2023/06/23 12:45:24;;;;;;;4.45;2.80;;;21.10;62.70;;;;;;5065728;28;20129;-75
2023/06/23 12:47:52;;;;;;;4.50;2.70;;;21.10;63.40;;;;;;5068439;28;20442;-76
2023/06/23 12:50:27;;;;;;;4.75;2.95;;;21.10;64.00;;;;;;5066521;28;20449;-77
2023/06/23 12:52:56;;;;;;;4.32;2.83;;;21.10;64.40;;;;;;5066087;28;20044;-77
2023/06/23 12:55:23;;;;;;;5.63;3.13;;;21.00;64.60;;;;;;5067122;28;20057;-78
2023/06/23 12:57:50;;;;;;;5.18;3.50;;;21.10;65.00;;;;;;5064375;28;20048;-78
2023/06/23 13:00:19;;;;;;;5.28;3.30;;;21.00;65.70;;;;;;5063705;28;20048;-74